<?xml version="1.0" encoding="UTF-8" standalone="no" ?>
<gpx xmlns="http://www.topografix.com/GPX/1/1" xmlns:xsi="http://www.w3.org/2001/XMLSchema-instance" xsi:schemaLocation="http://www.topografix.com/GPX/1/1 http://www.topografix.com/GPX/1/1/gpx.xsd" version="1.1" creator="VisuGPX - https://www.visugpx.com">
  <metadata>
    <name>Port d'Envaux taillebourg 12 km GNE</name>
  </metadata>
  <trk>
    <name><![CDATA[Port d'Envaux Taillebourg 12 km GNE-20055650]]></name>
    <trkseg>
      <trkpt lat="45.83438" lon="-0.67639">
        <ele>5</ele>
        <time>2024-10-14T17:27:16Z</time>
      </trkpt>
      <trkpt lat="45.83441" lon="-0.67634">
        <ele>5</ele>
        <time>2024-10-14T17:27:22Z</time>
      </trkpt>
      <trkpt lat="45.83452" lon="-0.67635">
        <ele>4</ele>
        <time>2024-10-14T17:27:37Z</time>
      </trkpt>
      <trkpt lat="45.83452" lon="-0.67622">
        <ele>4</ele>
        <time>2024-10-14T17:27:49Z</time>
      </trkpt>
      <trkpt lat="45.83449" lon="-0.67612">
        <ele>4</ele>
        <time>2024-10-14T17:27:59Z</time>
      </trkpt>
      <trkpt lat="45.83444" lon="-0.67593">
        <ele>5</ele>
        <time>2024-10-14T17:28:18Z</time>
      </trkpt>
      <trkpt lat="45.83427" lon="-0.67579">
        <ele>5</ele>
        <time>2024-10-14T17:28:44Z</time>
      </trkpt>
      <trkpt lat="45.83401" lon="-0.67571">
        <ele>6</ele>
        <time>2024-10-14T17:29:20Z</time>
      </trkpt>
      <trkpt lat="45.83436" lon="-0.67521">
        <ele>4</ele>
        <time>2024-10-14T17:30:25Z</time>
      </trkpt>
      <trkpt lat="45.835" lon="-0.67432">
        <ele>4</ele>
        <time>2024-10-14T17:32:24Z</time>
      </trkpt>
      <trkpt lat="45.83514" lon="-0.67417">
        <ele>4</ele>
        <time>2024-10-14T17:32:48Z</time>
      </trkpt>
      <trkpt lat="45.83517" lon="-0.6741">
        <ele>4</ele>
        <time>2024-10-14T17:32:55Z</time>
      </trkpt>
      <trkpt lat="45.83521" lon="-0.67399">
        <ele>4</ele>
        <time>2024-10-14T17:33:07Z</time>
      </trkpt>
      <trkpt lat="45.83526" lon="-0.67351">
        <ele>5</ele>
        <time>2024-10-14T17:33:52Z</time>
      </trkpt>
      <trkpt lat="45.83529" lon="-0.67336">
        <ele>5</ele>
        <time>2024-10-14T17:34:07Z</time>
      </trkpt>
      <trkpt lat="45.83552" lon="-0.67254">
        <ele>3</ele>
        <time>2024-10-14T17:35:29Z</time>
      </trkpt>
      <trkpt lat="45.83688" lon="-0.66721">
        <ele>2</ele>
        <time>2024-10-14T17:44:16Z</time>
      </trkpt>
      <trkpt lat="45.83691" lon="-0.66715">
        <ele>2</ele>
        <time>2024-10-14T17:44:23Z</time>
      </trkpt>
      <trkpt lat="45.83688" lon="-0.66721">
        <ele>2</ele>
        <time>2024-10-14T17:44:30Z</time>
      </trkpt>
      <trkpt lat="45.83419" lon="-0.66256">
        <ele>1</ele>
        <time>2024-10-14T17:53:52Z</time>
      </trkpt>
      <trkpt lat="45.8333" lon="-0.66099">
        <ele>2</ele>
        <time>2024-10-14T17:57:00Z</time>
      </trkpt>
      <trkpt lat="45.83285" lon="-0.66025">
        <ele>1</ele>
        <time>2024-10-14T17:58:32Z</time>
      </trkpt>
      <trkpt lat="45.83157" lon="-0.65798">
        <ele>2</ele>
        <time>2024-10-14T18:03:03Z</time>
      </trkpt>
      <trkpt lat="45.8302" lon="-0.65565">
        <ele>2</ele>
        <time>2024-10-14T18:07:47Z</time>
      </trkpt>
      <trkpt lat="45.82919" lon="-0.65386">
        <ele>2</ele>
        <time>2024-10-14T18:11:21Z</time>
      </trkpt>
      <trkpt lat="45.82906" lon="-0.65366">
        <ele>2</ele>
        <time>2024-10-14T18:11:46Z</time>
      </trkpt>
      <trkpt lat="45.82906" lon="-0.65366">
        <ele>2</ele>
        <time>2024-10-14T18:11:46Z</time>
      </trkpt>
      <trkpt lat="45.829" lon="-0.65355">
        <ele>2</ele>
        <time>2024-10-14T18:11:59Z</time>
      </trkpt>
      <trkpt lat="45.82896" lon="-0.65347">
        <ele>2</ele>
        <time>2024-10-14T18:12:08Z</time>
      </trkpt>
      <trkpt lat="45.82898" lon="-0.65342">
        <ele>2</ele>
        <time>2024-10-14T18:12:14Z</time>
      </trkpt>
      <trkpt lat="45.82965" lon="-0.65269">
        <ele>4</ele>
        <time>2024-10-14T18:14:06Z</time>
      </trkpt>
      <trkpt lat="45.82967" lon="-0.65264">
        <ele>4</ele>
        <time>2024-10-14T18:14:11Z</time>
      </trkpt>
      <trkpt lat="45.8296" lon="-0.65249">
        <ele>4</ele>
        <time>2024-10-14T18:14:28Z</time>
      </trkpt>
      <trkpt lat="45.83063" lon="-0.65159">
        <ele>4</ele>
        <time>2024-10-14T18:17:09Z</time>
      </trkpt>
      <trkpt lat="45.83089" lon="-0.65131">
        <ele>4</ele>
        <time>2024-10-14T18:17:53Z</time>
      </trkpt>
      <trkpt lat="45.83119" lon="-0.65087">
        <ele>4</ele>
        <time>2024-10-14T18:18:50Z</time>
      </trkpt>
      <trkpt lat="45.83134" lon="-0.65061">
        <ele>4</ele>
        <time>2024-10-14T18:19:21Z</time>
      </trkpt>
      <trkpt lat="45.83142" lon="-0.65042">
        <ele>5</ele>
        <time>2024-10-14T18:19:42Z</time>
      </trkpt>
      <trkpt lat="45.83155" lon="-0.65011">
        <ele>5</ele>
        <time>2024-10-14T18:20:15Z</time>
      </trkpt>
      <trkpt lat="45.83162" lon="-0.6499">
        <ele>6</ele>
        <time>2024-10-14T18:20:37Z</time>
      </trkpt>
      <trkpt lat="45.83179" lon="-0.64922">
        <ele>5</ele>
        <time>2024-10-14T18:21:44Z</time>
      </trkpt>
      <trkpt lat="45.83198" lon="-0.64839">
        <ele>4</ele>
        <time>2024-10-14T18:23:06Z</time>
      </trkpt>
      <trkpt lat="45.83214" lon="-0.64767">
        <ele>5</ele>
        <time>2024-10-14T18:24:16Z</time>
      </trkpt>
      <trkpt lat="45.83217" lon="-0.64753">
        <ele>6</ele>
        <time>2024-10-14T18:24:29Z</time>
      </trkpt>
      <trkpt lat="45.83223" lon="-0.64733">
        <ele>6</ele>
        <time>2024-10-14T18:24:50Z</time>
      </trkpt>
      <trkpt lat="45.83235" lon="-0.64698">
        <ele>6</ele>
        <time>2024-10-14T18:25:26Z</time>
      </trkpt>
      <trkpt lat="45.8326" lon="-0.64707">
        <ele>7</ele>
        <time>2024-10-14T18:26:00Z</time>
      </trkpt>
      <trkpt lat="45.8332" lon="-0.64756">
        <ele>10</ele>
        <time>2024-10-14T18:27:32Z</time>
      </trkpt>
      <trkpt lat="45.83344" lon="-0.6478">
        <ele>11</ele>
        <time>2024-10-14T18:28:11Z</time>
      </trkpt>
      <trkpt lat="45.83383" lon="-0.64836">
        <ele>9</ele>
        <time>2024-10-14T18:29:25Z</time>
      </trkpt>
      <trkpt lat="45.83391" lon="-0.64853">
        <ele>8</ele>
        <time>2024-10-14T18:29:44Z</time>
      </trkpt>
      <trkpt lat="45.83431" lon="-0.64888">
        <ele>7</ele>
        <time>2024-10-14T18:30:47Z</time>
      </trkpt>
      <trkpt lat="45.83456" lon="-0.64851">
        <ele>9</ele>
        <time>2024-10-14T18:31:35Z</time>
      </trkpt>
      <trkpt lat="45.83472" lon="-0.64829">
        <ele>10</ele>
        <time>2024-10-14T18:32:04Z</time>
      </trkpt>
      <trkpt lat="45.83532" lon="-0.64739">
        <ele>13</ele>
        <time>2024-10-14T18:34:00Z</time>
      </trkpt>
      <trkpt lat="45.83545" lon="-0.64707">
        <ele>13</ele>
        <time>2024-10-14T18:34:34Z</time>
      </trkpt>
      <trkpt lat="45.83552" lon="-0.64683">
        <ele>14</ele>
        <time>2024-10-14T18:34:59Z</time>
      </trkpt>
      <trkpt lat="45.83545" lon="-0.64707">
        <ele>13</ele>
        <time>2024-10-14T18:35:23Z</time>
      </trkpt>
      <trkpt lat="45.83532" lon="-0.64739">
        <ele>13</ele>
        <time>2024-10-14T18:35:57Z</time>
      </trkpt>
      <trkpt lat="45.83472" lon="-0.64829">
        <ele>10</ele>
        <time>2024-10-14T18:37:53Z</time>
      </trkpt>
      <trkpt lat="45.83456" lon="-0.64851">
        <ele>9</ele>
        <time>2024-10-14T18:38:23Z</time>
      </trkpt>
      <trkpt lat="45.83431" lon="-0.64888">
        <ele>7</ele>
        <time>2024-10-14T18:39:11Z</time>
      </trkpt>
      <trkpt lat="45.83391" lon="-0.64853">
        <ele>8</ele>
        <time>2024-10-14T18:40:13Z</time>
      </trkpt>
      <trkpt lat="45.83383" lon="-0.64836">
        <ele>9</ele>
        <time>2024-10-14T18:40:32Z</time>
      </trkpt>
      <trkpt lat="45.83344" lon="-0.6478">
        <ele>11</ele>
        <time>2024-10-14T18:41:46Z</time>
      </trkpt>
      <trkpt lat="45.8332" lon="-0.64756">
        <ele>10</ele>
        <time>2024-10-14T18:42:25Z</time>
      </trkpt>
      <trkpt lat="45.8326" lon="-0.64707">
        <ele>7</ele>
        <time>2024-10-14T18:43:57Z</time>
      </trkpt>
      <trkpt lat="45.83235" lon="-0.64698">
        <ele>6</ele>
        <time>2024-10-14T18:44:31Z</time>
      </trkpt>
      <trkpt lat="45.83223" lon="-0.64733">
        <ele>6</ele>
        <time>2024-10-14T18:45:08Z</time>
      </trkpt>
      <trkpt lat="45.83217" lon="-0.64753">
        <ele>6</ele>
        <time>2024-10-14T18:45:28Z</time>
      </trkpt>
      <trkpt lat="45.83214" lon="-0.64767">
        <ele>5</ele>
        <time>2024-10-14T18:45:41Z</time>
      </trkpt>
      <trkpt lat="45.83198" lon="-0.64839">
        <ele>4</ele>
        <time>2024-10-14T18:46:52Z</time>
      </trkpt>
      <trkpt lat="45.83179" lon="-0.64922">
        <ele>5</ele>
        <time>2024-10-14T18:48:13Z</time>
      </trkpt>
      <trkpt lat="45.83162" lon="-0.6499">
        <ele>6</ele>
        <time>2024-10-14T18:49:20Z</time>
      </trkpt>
      <trkpt lat="45.83155" lon="-0.65011">
        <ele>5</ele>
        <time>2024-10-14T18:49:42Z</time>
      </trkpt>
      <trkpt lat="45.83142" lon="-0.65042">
        <ele>5</ele>
        <time>2024-10-14T18:50:15Z</time>
      </trkpt>
      <trkpt lat="45.83134" lon="-0.65061">
        <ele>4</ele>
        <time>2024-10-14T18:50:36Z</time>
      </trkpt>
      <trkpt lat="45.83119" lon="-0.65087">
        <ele>4</ele>
        <time>2024-10-14T18:51:07Z</time>
      </trkpt>
      <trkpt lat="45.83089" lon="-0.65131">
        <ele>4</ele>
        <time>2024-10-14T18:52:05Z</time>
      </trkpt>
      <trkpt lat="45.83063" lon="-0.65159">
        <ele>4</ele>
        <time>2024-10-14T18:52:48Z</time>
      </trkpt>
      <trkpt lat="45.8296" lon="-0.65249">
        <ele>4</ele>
        <time>2024-10-14T18:55:29Z</time>
      </trkpt>
      <trkpt lat="45.82967" lon="-0.65264">
        <ele>4</ele>
        <time>2024-10-14T18:55:46Z</time>
      </trkpt>
      <trkpt lat="45.82965" lon="-0.65269">
        <ele>4</ele>
        <time>2024-10-14T18:55:51Z</time>
      </trkpt>
      <trkpt lat="45.82898" lon="-0.65342">
        <ele>2</ele>
        <time>2024-10-14T18:57:43Z</time>
      </trkpt>
      <trkpt lat="45.82896" lon="-0.65347">
        <ele>2</ele>
        <time>2024-10-14T18:57:49Z</time>
      </trkpt>
      <trkpt lat="45.82887" lon="-0.65353">
        <ele>2</ele>
        <time>2024-10-14T18:58:02Z</time>
      </trkpt>
      <trkpt lat="45.82782" lon="-0.65471">
        <ele>3</ele>
        <time>2024-10-14T19:01:00Z</time>
      </trkpt>
      <trkpt lat="45.82688" lon="-0.65556">
        <ele>3</ele>
        <time>2024-10-14T19:03:28Z</time>
      </trkpt>
      <trkpt lat="45.82637" lon="-0.65597">
        <ele>4</ele>
        <time>2024-10-14T19:04:46Z</time>
      </trkpt>
      <trkpt lat="45.82617" lon="-0.65618">
        <ele>4</ele>
        <time>2024-10-14T19:05:19Z</time>
      </trkpt>
      <trkpt lat="45.82586" lon="-0.65643">
        <ele>4</ele>
        <time>2024-10-14T19:06:07Z</time>
      </trkpt>
      <trkpt lat="45.82557" lon="-0.65663">
        <ele>4</ele>
        <time>2024-10-14T19:06:50Z</time>
      </trkpt>
      <trkpt lat="45.82479" lon="-0.65736">
        <ele>5</ele>
        <time>2024-10-14T19:08:54Z</time>
      </trkpt>
      <trkpt lat="45.82472" lon="-0.65732">
        <ele>5</ele>
        <time>2024-10-14T19:09:04Z</time>
      </trkpt>
      <trkpt lat="45.82463" lon="-0.65727">
        <ele>5</ele>
        <time>2024-10-14T19:09:17Z</time>
      </trkpt>
      <trkpt lat="45.82447" lon="-0.65744">
        <ele>6</ele>
        <time>2024-10-14T19:09:43Z</time>
      </trkpt>
      <trkpt lat="45.82432" lon="-0.6576">
        <ele>6</ele>
        <time>2024-10-14T19:10:08Z</time>
      </trkpt>
      <trkpt lat="45.82401" lon="-0.65787">
        <ele>7</ele>
        <time>2024-10-14T19:10:57Z</time>
      </trkpt>
      <trkpt lat="45.82386" lon="-0.65795">
        <ele>7</ele>
        <time>2024-10-14T19:11:18Z</time>
      </trkpt>
      <trkpt lat="45.82371" lon="-0.65799">
        <ele>7</ele>
        <time>2024-10-14T19:11:39Z</time>
      </trkpt>
      <trkpt lat="45.82371" lon="-0.65799">
        <ele>7</ele>
        <time>2024-10-14T19:11:39Z</time>
      </trkpt>
      <trkpt lat="45.82371" lon="-0.65799">
        <ele>7</ele>
        <time>2024-10-14T19:11:39Z</time>
      </trkpt>
      <trkpt lat="45.82377" lon="-0.65818">
        <ele>6</ele>
        <time>2024-10-14T19:11:58Z</time>
      </trkpt>
      <trkpt lat="45.82395" lon="-0.65857">
        <ele>6</ele>
        <time>2024-10-14T19:12:42Z</time>
      </trkpt>
      <trkpt lat="45.82409" lon="-0.65883">
        <ele>5</ele>
        <time>2024-10-14T19:13:12Z</time>
      </trkpt>
      <trkpt lat="45.82434" lon="-0.65917">
        <ele>5</ele>
        <time>2024-10-14T19:13:58Z</time>
      </trkpt>
      <trkpt lat="45.82437" lon="-0.65922">
        <ele>5</ele>
        <time>2024-10-14T19:14:04Z</time>
      </trkpt>
      <trkpt lat="45.82452" lon="-0.65937">
        <ele>5</ele>
        <time>2024-10-14T19:14:29Z</time>
      </trkpt>
      <trkpt lat="45.82489" lon="-0.6599">
        <ele>5</ele>
        <time>2024-10-14T19:15:38Z</time>
      </trkpt>
      <trkpt lat="45.825" lon="-0.66012">
        <ele>5</ele>
        <time>2024-10-14T19:16:04Z</time>
      </trkpt>
      <trkpt lat="45.82538" lon="-0.66107">
        <ele>5</ele>
        <time>2024-10-14T19:17:45Z</time>
      </trkpt>
      <trkpt lat="45.82585" lon="-0.66237">
        <ele>5</ele>
        <time>2024-10-14T19:20:02Z</time>
      </trkpt>
      <trkpt lat="45.82595" lon="-0.66283">
        <ele>5</ele>
        <time>2024-10-14T19:20:46Z</time>
      </trkpt>
      <trkpt lat="45.82615" lon="-0.6643">
        <ele>4</ele>
        <time>2024-10-14T19:23:06Z</time>
      </trkpt>
      <trkpt lat="45.82622" lon="-0.66492">
        <ele>6</ele>
        <time>2024-10-14T19:24:04Z</time>
      </trkpt>
      <trkpt lat="45.82627" lon="-0.66576">
        <ele>6</ele>
        <time>2024-10-14T19:25:23Z</time>
      </trkpt>
      <trkpt lat="45.82629" lon="-0.66619">
        <ele>7</ele>
        <time>2024-10-14T19:26:03Z</time>
      </trkpt>
      <trkpt lat="45.82616" lon="-0.66652">
        <ele>8</ele>
        <time>2024-10-14T19:26:38Z</time>
      </trkpt>
      <trkpt lat="45.82607" lon="-0.66688">
        <ele>9</ele>
        <time>2024-10-14T19:27:13Z</time>
      </trkpt>
      <trkpt lat="45.82659" lon="-0.66752">
        <ele>10</ele>
        <time>2024-10-14T19:28:45Z</time>
      </trkpt>
      <trkpt lat="45.82656" lon="-0.66795">
        <ele>12</ele>
        <time>2024-10-14T19:29:25Z</time>
      </trkpt>
      <trkpt lat="45.8265" lon="-0.66834">
        <ele>13</ele>
        <time>2024-10-14T19:30:02Z</time>
      </trkpt>
      <trkpt lat="45.82639" lon="-0.66874">
        <ele>13</ele>
        <time>2024-10-14T19:30:42Z</time>
      </trkpt>
      <trkpt lat="45.82636" lon="-0.66903">
        <ele>14</ele>
        <time>2024-10-14T19:31:09Z</time>
      </trkpt>
      <trkpt lat="45.82636" lon="-0.66923">
        <ele>14</ele>
        <time>2024-10-14T19:31:28Z</time>
      </trkpt>
      <trkpt lat="45.82655" lon="-0.67037">
        <ele>12</ele>
        <time>2024-10-14T19:33:17Z</time>
      </trkpt>
      <trkpt lat="45.82656" lon="-0.67062">
        <ele>11</ele>
        <time>2024-10-14T19:33:40Z</time>
      </trkpt>
      <trkpt lat="45.82656" lon="-0.67087">
        <ele>10</ele>
        <time>2024-10-14T19:34:04Z</time>
      </trkpt>
      <trkpt lat="45.82647" lon="-0.67146">
        <ele>9</ele>
        <time>2024-10-14T19:35:00Z</time>
      </trkpt>
      <trkpt lat="45.82646" lon="-0.67181">
        <ele>9</ele>
        <time>2024-10-14T19:35:32Z</time>
      </trkpt>
      <trkpt lat="45.82649" lon="-0.67218">
        <ele>9</ele>
        <time>2024-10-14T19:36:07Z</time>
      </trkpt>
      <trkpt lat="45.82651" lon="-0.67223">
        <ele>8</ele>
        <time>2024-10-14T19:36:12Z</time>
      </trkpt>
      <trkpt lat="45.82639" lon="-0.67224">
        <ele>9</ele>
        <time>2024-10-14T19:36:28Z</time>
      </trkpt>
      <trkpt lat="45.82608" lon="-0.67216">
        <ele>9</ele>
        <time>2024-10-14T19:37:10Z</time>
      </trkpt>
      <trkpt lat="45.82596" lon="-0.67227">
        <ele>9</ele>
        <time>2024-10-14T19:37:29Z</time>
      </trkpt>
      <trkpt lat="45.82493" lon="-0.67301">
        <ele>15</ele>
        <time>2024-10-14T19:40:03Z</time>
      </trkpt>
      <trkpt lat="45.82429" lon="-0.67341">
        <ele>14</ele>
        <time>2024-10-14T19:41:36Z</time>
      </trkpt>
      <trkpt lat="45.8238" lon="-0.67382">
        <ele>16</ele>
        <time>2024-10-14T19:42:52Z</time>
      </trkpt>
      <trkpt lat="45.82338" lon="-0.67401">
        <ele>18</ele>
        <time>2024-10-14T19:43:51Z</time>
      </trkpt>
      <trkpt lat="45.82311" lon="-0.67433">
        <ele>19</ele>
        <time>2024-10-14T19:44:37Z</time>
      </trkpt>
      <trkpt lat="45.82296" lon="-0.67457">
        <ele>21</ele>
        <time>2024-10-14T19:45:07Z</time>
      </trkpt>
      <trkpt lat="45.82261" lon="-0.6752">
        <ele>23</ele>
        <time>2024-10-14T19:46:22Z</time>
      </trkpt>
      <trkpt lat="45.82243" lon="-0.67546">
        <ele>25</ele>
        <time>2024-10-14T19:46:56Z</time>
      </trkpt>
      <trkpt lat="45.82227" lon="-0.67564">
        <ele>26</ele>
        <time>2024-10-14T19:47:24Z</time>
      </trkpt>
      <trkpt lat="45.82209" lon="-0.67578">
        <ele>27</ele>
        <time>2024-10-14T19:47:51Z</time>
      </trkpt>
      <trkpt lat="45.82187" lon="-0.67596">
        <ele>29</ele>
        <time>2024-10-14T19:48:25Z</time>
      </trkpt>
      <trkpt lat="45.82177" lon="-0.67604">
        <ele>29</ele>
        <time>2024-10-14T19:48:40Z</time>
      </trkpt>
      <trkpt lat="45.8213" lon="-0.67622">
        <ele>32</ele>
        <time>2024-10-14T19:49:45Z</time>
      </trkpt>
      <trkpt lat="45.82114" lon="-0.67624">
        <ele>33</ele>
        <time>2024-10-14T19:50:06Z</time>
      </trkpt>
      <trkpt lat="45.8206" lon="-0.67636">
        <ele>36</ele>
        <time>2024-10-14T19:51:19Z</time>
      </trkpt>
      <trkpt lat="45.82035" lon="-0.67639">
        <ele>37</ele>
        <time>2024-10-14T19:51:53Z</time>
      </trkpt>
      <trkpt lat="45.82015" lon="-0.6765">
        <ele>39</ele>
        <time>2024-10-14T19:52:21Z</time>
      </trkpt>
      <trkpt lat="45.82" lon="-0.67654">
        <ele>40</ele>
        <time>2024-10-14T19:52:42Z</time>
      </trkpt>
      <trkpt lat="45.81954" lon="-0.67656">
        <ele>41</ele>
        <time>2024-10-14T19:53:43Z</time>
      </trkpt>
      <trkpt lat="45.81933" lon="-0.67655">
        <ele>41</ele>
        <time>2024-10-14T19:54:11Z</time>
      </trkpt>
      <trkpt lat="45.81902" lon="-0.6765">
        <ele>42</ele>
        <time>2024-10-14T19:54:53Z</time>
      </trkpt>
      <trkpt lat="45.81868" lon="-0.67652">
        <ele>43</ele>
        <time>2024-10-14T19:55:38Z</time>
      </trkpt>
      <trkpt lat="45.81847" lon="-0.67597">
        <ele>42</ele>
        <time>2024-10-14T19:56:36Z</time>
      </trkpt>
      <trkpt lat="45.81844" lon="-0.6758">
        <ele>42</ele>
        <time>2024-10-14T19:56:53Z</time>
      </trkpt>
      <trkpt lat="45.81837" lon="-0.6755">
        <ele>42</ele>
        <time>2024-10-14T19:57:22Z</time>
      </trkpt>
      <trkpt lat="45.81834" lon="-0.67516">
        <ele>42</ele>
        <time>2024-10-14T19:57:54Z</time>
      </trkpt>
      <trkpt lat="45.81831" lon="-0.67499">
        <ele>42</ele>
        <time>2024-10-14T19:58:10Z</time>
      </trkpt>
      <trkpt lat="45.81823" lon="-0.67473">
        <ele>42</ele>
        <time>2024-10-14T19:58:37Z</time>
      </trkpt>
      <trkpt lat="45.81809" lon="-0.67487">
        <ele>43</ele>
        <time>2024-10-14T19:59:00Z</time>
      </trkpt>
      <trkpt lat="45.81823" lon="-0.67473">
        <ele>42</ele>
        <time>2024-10-14T19:59:22Z</time>
      </trkpt>
      <trkpt lat="45.81816" lon="-0.6746">
        <ele>42</ele>
        <time>2024-10-14T19:59:38Z</time>
      </trkpt>
      <trkpt lat="45.81803" lon="-0.67445">
        <ele>42</ele>
        <time>2024-10-14T20:00:00Z</time>
      </trkpt>
      <trkpt lat="45.81772" lon="-0.67398">
        <ele>42</ele>
        <time>2024-10-14T20:01:00Z</time>
      </trkpt>
      <trkpt lat="45.81762" lon="-0.67392">
        <ele>42</ele>
        <time>2024-10-14T20:01:15Z</time>
      </trkpt>
      <trkpt lat="45.81745" lon="-0.6739">
        <ele>42</ele>
        <time>2024-10-14T20:01:37Z</time>
      </trkpt>
      <trkpt lat="45.81728" lon="-0.67396">
        <ele>42</ele>
        <time>2024-10-14T20:02:01Z</time>
      </trkpt>
      <trkpt lat="45.81715" lon="-0.67399">
        <ele>42</ele>
        <time>2024-10-14T20:02:18Z</time>
      </trkpt>
      <trkpt lat="45.81705" lon="-0.67399">
        <ele>41</ele>
        <time>2024-10-14T20:02:32Z</time>
      </trkpt>
      <trkpt lat="45.81698" lon="-0.67395">
        <ele>41</ele>
        <time>2024-10-14T20:02:42Z</time>
      </trkpt>
      <trkpt lat="45.81666" lon="-0.6737">
        <ele>41</ele>
        <time>2024-10-14T20:03:30Z</time>
      </trkpt>
      <trkpt lat="45.81633" lon="-0.67356">
        <ele>40</ele>
        <time>2024-10-14T20:04:16Z</time>
      </trkpt>
      <trkpt lat="45.81614" lon="-0.67355">
        <ele>39</ele>
        <time>2024-10-14T20:04:42Z</time>
      </trkpt>
      <trkpt lat="45.81602" lon="-0.67367">
        <ele>39</ele>
        <time>2024-10-14T20:05:01Z</time>
      </trkpt>
      <trkpt lat="45.81584" lon="-0.67393">
        <ele>38</ele>
        <time>2024-10-14T20:05:35Z</time>
      </trkpt>
      <trkpt lat="45.8157" lon="-0.67404">
        <ele>37</ele>
        <time>2024-10-14T20:05:56Z</time>
      </trkpt>
      <trkpt lat="45.81563" lon="-0.67405">
        <ele>37</ele>
        <time>2024-10-14T20:06:06Z</time>
      </trkpt>
      <trkpt lat="45.8156" lon="-0.67404">
        <ele>37</ele>
        <time>2024-10-14T20:06:10Z</time>
      </trkpt>
      <trkpt lat="45.81553" lon="-0.67394">
        <ele>37</ele>
        <time>2024-10-14T20:06:23Z</time>
      </trkpt>
      <trkpt lat="45.81549" lon="-0.6738">
        <ele>36</ele>
        <time>2024-10-14T20:06:37Z</time>
      </trkpt>
      <trkpt lat="45.81546" lon="-0.67356">
        <ele>36</ele>
        <time>2024-10-14T20:07:00Z</time>
      </trkpt>
      <trkpt lat="45.81549" lon="-0.6738">
        <ele>36</ele>
        <time>2024-10-14T20:07:23Z</time>
      </trkpt>
      <trkpt lat="45.81553" lon="-0.67394">
        <ele>37</ele>
        <time>2024-10-14T20:07:37Z</time>
      </trkpt>
      <trkpt lat="45.8156" lon="-0.67404">
        <ele>37</ele>
        <time>2024-10-14T20:07:50Z</time>
      </trkpt>
      <trkpt lat="45.81563" lon="-0.67405">
        <ele>37</ele>
        <time>2024-10-14T20:07:54Z</time>
      </trkpt>
      <trkpt lat="45.81547" lon="-0.67415">
        <ele>37</ele>
        <time>2024-10-14T20:08:17Z</time>
      </trkpt>
      <trkpt lat="45.81521" lon="-0.67448">
        <ele>37</ele>
        <time>2024-10-14T20:09:04Z</time>
      </trkpt>
      <trkpt lat="45.81512" lon="-0.6746">
        <ele>37</ele>
        <time>2024-10-14T20:09:20Z</time>
      </trkpt>
      <trkpt lat="45.81496" lon="-0.6749">
        <ele>38</ele>
        <time>2024-10-14T20:09:55Z</time>
      </trkpt>
      <trkpt lat="45.81487" lon="-0.6751">
        <ele>38</ele>
        <time>2024-10-14T20:10:17Z</time>
      </trkpt>
      <trkpt lat="45.81468" lon="-0.67562">
        <ele>38</ele>
        <time>2024-10-14T20:11:12Z</time>
      </trkpt>
      <trkpt lat="45.81444" lon="-0.67613">
        <ele>39</ele>
        <time>2024-10-14T20:12:09Z</time>
      </trkpt>
      <trkpt lat="45.81395" lon="-0.67686">
        <ele>38</ele>
        <time>2024-10-14T20:13:43Z</time>
      </trkpt>
      <trkpt lat="45.81422" lon="-0.6772">
        <ele>37</ele>
        <time>2024-10-14T20:14:31Z</time>
      </trkpt>
      <trkpt lat="45.81436" lon="-0.67752">
        <ele>39</ele>
        <time>2024-10-14T20:15:06Z</time>
      </trkpt>
      <trkpt lat="45.81446" lon="-0.67797">
        <ele>40</ele>
        <time>2024-10-14T20:15:50Z</time>
      </trkpt>
      <trkpt lat="45.81447" lon="-0.67815">
        <ele>41</ele>
        <time>2024-10-14T20:16:07Z</time>
      </trkpt>
      <trkpt lat="45.8145" lon="-0.67824">
        <ele>41</ele>
        <time>2024-10-14T20:16:16Z</time>
      </trkpt>
      <trkpt lat="45.81452" lon="-0.67836">
        <ele>42</ele>
        <time>2024-10-14T20:16:28Z</time>
      </trkpt>
      <trkpt lat="45.81442" lon="-0.67896">
        <ele>43</ele>
        <time>2024-10-14T20:17:25Z</time>
      </trkpt>
      <trkpt lat="45.81438" lon="-0.67909">
        <ele>43</ele>
        <time>2024-10-14T20:17:38Z</time>
      </trkpt>
      <trkpt lat="45.81428" lon="-0.6793">
        <ele>43</ele>
        <time>2024-10-14T20:18:02Z</time>
      </trkpt>
      <trkpt lat="45.81425" lon="-0.67947">
        <ele>44</ele>
        <time>2024-10-14T20:18:18Z</time>
      </trkpt>
      <trkpt lat="45.81424" lon="-0.67962">
        <ele>44</ele>
        <time>2024-10-14T20:18:32Z</time>
      </trkpt>
      <trkpt lat="45.8143" lon="-0.6799">
        <ele>45</ele>
        <time>2024-10-14T20:19:00Z</time>
      </trkpt>
      <trkpt lat="45.81445" lon="-0.68041">
        <ele>48</ele>
        <time>2024-10-14T20:19:51Z</time>
      </trkpt>
      <trkpt lat="45.81449" lon="-0.68066">
        <ele>49</ele>
        <time>2024-10-14T20:20:15Z</time>
      </trkpt>
      <trkpt lat="45.81452" lon="-0.68102">
        <ele>50</ele>
        <time>2024-10-14T20:20:49Z</time>
      </trkpt>
      <trkpt lat="45.81454" lon="-0.68166">
        <ele>51</ele>
        <time>2024-10-14T20:21:48Z</time>
      </trkpt>
      <trkpt lat="45.81442" lon="-0.68248">
        <ele>53</ele>
        <time>2024-10-14T20:23:06Z</time>
      </trkpt>
      <trkpt lat="45.81445" lon="-0.68269">
        <ele>53</ele>
        <time>2024-10-14T20:23:26Z</time>
      </trkpt>
      <trkpt lat="45.81443" lon="-0.68281">
        <ele>53</ele>
        <time>2024-10-14T20:23:38Z</time>
      </trkpt>
      <trkpt lat="45.81437" lon="-0.68302">
        <ele>53</ele>
        <time>2024-10-14T20:23:59Z</time>
      </trkpt>
      <trkpt lat="45.81429" lon="-0.68322">
        <ele>54</ele>
        <time>2024-10-14T20:24:20Z</time>
      </trkpt>
      <trkpt lat="45.81421" lon="-0.68338">
        <ele>54</ele>
        <time>2024-10-14T20:24:39Z</time>
      </trkpt>
      <trkpt lat="45.81413" lon="-0.68362">
        <ele>54</ele>
        <time>2024-10-14T20:25:03Z</time>
      </trkpt>
      <trkpt lat="45.81409" lon="-0.6838">
        <ele>54</ele>
        <time>2024-10-14T20:25:21Z</time>
      </trkpt>
      <trkpt lat="45.81409" lon="-0.68409">
        <ele>54</ele>
        <time>2024-10-14T20:25:48Z</time>
      </trkpt>
      <trkpt lat="45.81405" lon="-0.68429">
        <ele>54</ele>
        <time>2024-10-14T20:26:07Z</time>
      </trkpt>
      <trkpt lat="45.81421" lon="-0.68434">
        <ele>53</ele>
        <time>2024-10-14T20:26:29Z</time>
      </trkpt>
      <trkpt lat="45.81425" lon="-0.68443">
        <ele>52</ele>
        <time>2024-10-14T20:26:39Z</time>
      </trkpt>
      <trkpt lat="45.81421" lon="-0.68434">
        <ele>53</ele>
        <time>2024-10-14T20:26:49Z</time>
      </trkpt>
      <trkpt lat="45.81445" lon="-0.68442">
        <ele>52</ele>
        <time>2024-10-14T20:27:22Z</time>
      </trkpt>
      <trkpt lat="45.81464" lon="-0.68448">
        <ele>51</ele>
        <time>2024-10-14T20:27:48Z</time>
      </trkpt>
      <trkpt lat="45.8148" lon="-0.68451">
        <ele>51</ele>
        <time>2024-10-14T20:28:09Z</time>
      </trkpt>
      <trkpt lat="45.81572" lon="-0.68443">
        <ele>49</ele>
        <time>2024-10-14T20:30:12Z</time>
      </trkpt>
      <trkpt lat="45.81619" lon="-0.68437">
        <ele>48</ele>
        <time>2024-10-14T20:31:15Z</time>
      </trkpt>
      <trkpt lat="45.81637" lon="-0.68431">
        <ele>48</ele>
        <time>2024-10-14T20:31:40Z</time>
      </trkpt>
      <trkpt lat="45.81657" lon="-0.68418">
        <ele>48</ele>
        <time>2024-10-14T20:32:09Z</time>
      </trkpt>
      <trkpt lat="45.81681" lon="-0.68411">
        <ele>48</ele>
        <time>2024-10-14T20:32:42Z</time>
      </trkpt>
      <trkpt lat="45.81711" lon="-0.68395">
        <ele>49</ele>
        <time>2024-10-14T20:33:25Z</time>
      </trkpt>
      <trkpt lat="45.81807" lon="-0.6833">
        <ele>49</ele>
        <time>2024-10-14T20:35:46Z</time>
      </trkpt>
      <trkpt lat="45.8183" lon="-0.68317">
        <ele>49</ele>
        <time>2024-10-14T20:36:19Z</time>
      </trkpt>
      <trkpt lat="45.81847" lon="-0.68312">
        <ele>49</ele>
        <time>2024-10-14T20:36:42Z</time>
      </trkpt>
      <trkpt lat="45.81866" lon="-0.683">
        <ele>48</ele>
        <time>2024-10-14T20:37:10Z</time>
      </trkpt>
      <trkpt lat="45.81905" lon="-0.68267">
        <ele>46</ele>
        <time>2024-10-14T20:38:11Z</time>
      </trkpt>
      <trkpt lat="45.81913" lon="-0.68257">
        <ele>45</ele>
        <time>2024-10-14T20:38:25Z</time>
      </trkpt>
      <trkpt lat="45.81928" lon="-0.6823">
        <ele>44</ele>
        <time>2024-10-14T20:38:57Z</time>
      </trkpt>
      <trkpt lat="45.81931" lon="-0.68221">
        <ele>43</ele>
        <time>2024-10-14T20:39:06Z</time>
      </trkpt>
      <trkpt lat="45.81938" lon="-0.68198">
        <ele>42</ele>
        <time>2024-10-14T20:39:29Z</time>
      </trkpt>
      <trkpt lat="45.81948" lon="-0.6815">
        <ele>41</ele>
        <time>2024-10-14T20:40:16Z</time>
      </trkpt>
      <trkpt lat="45.81967" lon="-0.68094">
        <ele>41</ele>
        <time>2024-10-14T20:41:14Z</time>
      </trkpt>
      <trkpt lat="45.81987" lon="-0.68057">
        <ele>40</ele>
        <time>2024-10-14T20:41:58Z</time>
      </trkpt>
      <trkpt lat="45.81999" lon="-0.68041">
        <ele>40</ele>
        <time>2024-10-14T20:42:19Z</time>
      </trkpt>
      <trkpt lat="45.82019" lon="-0.68021">
        <ele>39</ele>
        <time>2024-10-14T20:42:52Z</time>
      </trkpt>
      <trkpt lat="45.82063" lon="-0.67991">
        <ele>38</ele>
        <time>2024-10-14T20:43:57Z</time>
      </trkpt>
      <trkpt lat="45.82109" lon="-0.67969">
        <ele>36</ele>
        <time>2024-10-14T20:45:02Z</time>
      </trkpt>
      <trkpt lat="45.82129" lon="-0.67962">
        <ele>35</ele>
        <time>2024-10-14T20:45:29Z</time>
      </trkpt>
      <trkpt lat="45.82151" lon="-0.67957">
        <ele>34</ele>
        <time>2024-10-14T20:45:59Z</time>
      </trkpt>
      <trkpt lat="45.82218" lon="-0.67933">
        <ele>33</ele>
        <time>2024-10-14T20:47:31Z</time>
      </trkpt>
      <trkpt lat="45.82242" lon="-0.67921">
        <ele>32</ele>
        <time>2024-10-14T20:48:05Z</time>
      </trkpt>
      <trkpt lat="45.82284" lon="-0.67891">
        <ele>32</ele>
        <time>2024-10-14T20:49:07Z</time>
      </trkpt>
      <trkpt lat="45.82309" lon="-0.67869">
        <ele>31</ele>
        <time>2024-10-14T20:49:47Z</time>
      </trkpt>
      <trkpt lat="45.82337" lon="-0.67844">
        <ele>31</ele>
        <time>2024-10-14T20:50:31Z</time>
      </trkpt>
      <trkpt lat="45.82354" lon="-0.67832">
        <ele>30</ele>
        <time>2024-10-14T20:50:56Z</time>
      </trkpt>
      <trkpt lat="45.82394" lon="-0.67815">
        <ele>29</ele>
        <time>2024-10-14T20:51:52Z</time>
      </trkpt>
      <trkpt lat="45.82403" lon="-0.67808">
        <ele>29</ele>
        <time>2024-10-14T20:52:05Z</time>
      </trkpt>
      <trkpt lat="45.82422" lon="-0.67792">
        <ele>28</ele>
        <time>2024-10-14T20:52:35Z</time>
      </trkpt>
      <trkpt lat="45.82445" lon="-0.67769">
        <ele>27</ele>
        <time>2024-10-14T20:53:12Z</time>
      </trkpt>
      <trkpt lat="45.82496" lon="-0.67709">
        <ele>22</ele>
        <time>2024-10-14T20:54:40Z</time>
      </trkpt>
      <trkpt lat="45.82549" lon="-0.67656">
        <ele>19</ele>
        <time>2024-10-14T20:56:06Z</time>
      </trkpt>
      <trkpt lat="45.8256" lon="-0.67641">
        <ele>18</ele>
        <time>2024-10-14T20:56:27Z</time>
      </trkpt>
      <trkpt lat="45.82588" lon="-0.67597">
        <ele>16</ele>
        <time>2024-10-14T20:57:22Z</time>
      </trkpt>
      <trkpt lat="45.82609" lon="-0.67545">
        <ele>15</ele>
        <time>2024-10-14T20:58:18Z</time>
      </trkpt>
      <trkpt lat="45.82652" lon="-0.67483">
        <ele>14</ele>
        <time>2024-10-14T20:59:39Z</time>
      </trkpt>
      <trkpt lat="45.82703" lon="-0.67403">
        <ele>11</ele>
        <time>2024-10-14T21:01:20Z</time>
      </trkpt>
      <trkpt lat="45.82743" lon="-0.67348">
        <ele>10</ele>
        <time>2024-10-14T21:02:34Z</time>
      </trkpt>
      <trkpt lat="45.82756" lon="-0.67334">
        <ele>10</ele>
        <time>2024-10-14T21:02:56Z</time>
      </trkpt>
      <trkpt lat="45.82774" lon="-0.6732">
        <ele>11</ele>
        <time>2024-10-14T21:03:23Z</time>
      </trkpt>
      <trkpt lat="45.82768" lon="-0.67316">
        <ele>10</ele>
        <time>2024-10-14T21:03:32Z</time>
      </trkpt>
      <trkpt lat="45.82774" lon="-0.6732">
        <ele>11</ele>
        <time>2024-10-14T21:03:41Z</time>
      </trkpt>
      <trkpt lat="45.82818" lon="-0.67344">
        <ele>12</ele>
        <time>2024-10-14T21:04:43Z</time>
      </trkpt>
      <trkpt lat="45.82829" lon="-0.67345">
        <ele>13</ele>
        <time>2024-10-14T21:04:58Z</time>
      </trkpt>
      <trkpt lat="45.82835" lon="-0.67347">
        <ele>13</ele>
        <time>2024-10-14T21:05:06Z</time>
      </trkpt>
      <trkpt lat="45.82841" lon="-0.67352">
        <ele>13</ele>
        <time>2024-10-14T21:05:16Z</time>
      </trkpt>
      <trkpt lat="45.82845" lon="-0.67359">
        <ele>13</ele>
        <time>2024-10-14T21:05:24Z</time>
      </trkpt>
      <trkpt lat="45.8289" lon="-0.67384">
        <ele>13</ele>
        <time>2024-10-14T21:06:28Z</time>
      </trkpt>
      <trkpt lat="45.82913" lon="-0.674">
        <ele>12</ele>
        <time>2024-10-14T21:07:02Z</time>
      </trkpt>
      <trkpt lat="45.82965" lon="-0.67455">
        <ele>13</ele>
        <time>2024-10-14T21:08:29Z</time>
      </trkpt>
      <trkpt lat="45.82999" lon="-0.67484">
        <ele>12</ele>
        <time>2024-10-14T21:09:21Z</time>
      </trkpt>
      <trkpt lat="45.83054" lon="-0.67521">
        <ele>12</ele>
        <time>2024-10-14T21:10:43Z</time>
      </trkpt>
      <trkpt lat="45.83144" lon="-0.67589">
        <ele>12</ele>
        <time>2024-10-14T21:12:58Z</time>
      </trkpt>
      <trkpt lat="45.8321" lon="-0.67644">
        <ele>11</ele>
        <time>2024-10-14T21:14:40Z</time>
      </trkpt>
      <trkpt lat="45.83247" lon="-0.67679">
        <ele>10</ele>
        <time>2024-10-14T21:15:39Z</time>
      </trkpt>
      <trkpt lat="45.83285" lon="-0.67717">
        <ele>10</ele>
        <time>2024-10-14T21:16:41Z</time>
      </trkpt>
      <trkpt lat="45.83307" lon="-0.67736">
        <ele>9</ele>
        <time>2024-10-14T21:17:15Z</time>
      </trkpt>
      <trkpt lat="45.83317" lon="-0.6774">
        <ele>9</ele>
        <time>2024-10-14T21:17:29Z</time>
      </trkpt>
      <trkpt lat="45.83332" lon="-0.67742">
        <ele>8</ele>
        <time>2024-10-14T21:17:49Z</time>
      </trkpt>
      <trkpt lat="45.83352" lon="-0.6774">
        <ele>8</ele>
        <time>2024-10-14T21:18:16Z</time>
      </trkpt>
      <trkpt lat="45.8336" lon="-0.67737">
        <ele>8</ele>
        <time>2024-10-14T21:18:27Z</time>
      </trkpt>
      <trkpt lat="45.83383" lon="-0.67761">
        <ele>7</ele>
        <time>2024-10-14T21:19:05Z</time>
      </trkpt>
      <trkpt lat="45.83389" lon="-0.6775">
        <ele>7</ele>
        <time>2024-10-14T21:19:18Z</time>
      </trkpt>
      <trkpt lat="45.83389" lon="-0.6775">
        <ele>7</ele>
        <time>2024-10-14T21:19:18Z</time>
      </trkpt>
      <trkpt lat="45.83399" lon="-0.67731">
        <ele>6</ele>
        <time>2024-10-14T21:19:40Z</time>
      </trkpt>
      <trkpt lat="45.83415" lon="-0.67681">
        <ele>5</ele>
        <time>2024-10-14T21:20:31Z</time>
      </trkpt>
      <trkpt lat="45.83425" lon="-0.67663">
        <ele>5</ele>
        <time>2024-10-14T21:20:53Z</time>
      </trkpt>
    </trkseg>
  </trk>
</gpx>